createdAt,value
2023-03-23T00:01:20.931Z,838.00
2023-03-23T00:05:21.058Z,834.00
2023-03-23T00:09:21.168Z,832.00
2023-03-23T00:13:21.329Z,835.00
2023-03-23T00:17:21.446Z,834.00
2023-03-23T00:21:21.534Z,831.00
2023-03-23T00:25:21.753Z,829.00
2023-03-23T00:29:21.841Z,830.00
2023-03-23T00:33:21.997Z,828.00
2023-03-23T00:37:22.204Z,825.00
2023-03-23T00:41:22.366Z,829.00
2023-03-23T00:45:22.603Z,820.00
2023-03-23T00:49:22.553Z,819.00
2023-03-23T00:53:22.532Z,818.00
2023-03-23T00:57:22.484Z,814.00
2023-03-23T01:01:22.447Z,817.00
2023-03-23T01:05:22.396Z,816.00
2023-03-23T01:09:22.360Z,812.00
2023-03-23T01:13:22.327Z,803.00
2023-03-23T01:17:22.291Z,796.00
2023-03-23T01:21:22.247Z,797.00
2023-03-23T01:25:22.205Z,790.00
2023-03-23T01:29:22.165Z,791.00
2023-03-23T01:33:22.124Z,788.00
2023-03-23T01:37:22.072Z,787.00
2023-03-23T01:41:22.034Z,794.00
2023-03-23T01:45:22.115Z,788.00
2023-03-23T01:49:22.225Z,788.00
2023-03-23T01:53:22.371Z,793.00
2023-03-23T01:57:22.481Z,791.00
2023-03-23T02:01:22.614Z,784.00
2023-03-23T02:05:22.701Z,788.00
2023-03-23T02:09:22.684Z,792.00
2023-03-23T02:13:22.616Z,783.00
2023-03-23T02:17:22.540Z,781.00
2023-03-23T02:21:22.501Z,780.00
2023-03-23T02:25:22.429Z,781.00
2023-03-23T02:29:22.388Z,780.00
2023-03-23T02:33:22.367Z,778.00
2023-03-23T02:37:22.317Z,774.00
2023-03-23T02:41:22.262Z,776.00
2023-03-23T02:45:22.221Z,775.00
2023-03-23T02:49:22.159Z,774.00
2023-03-23T02:53:22.110Z,773.00
2023-03-23T02:57:22.052Z,769.00
2023-03-23T03:01:23.001Z,769.00
2023-03-23T03:05:21.945Z,771.00
2023-03-23T03:09:21.897Z,765.00
2023-03-23T03:13:21.901Z,767.00
2023-03-23T03:17:22.014Z,758.00
2023-03-23T03:21:22.176Z,760.00
2023-03-23T03:25:22.404Z,761.00
2023-03-23T03:29:22.571Z,759.00
2023-03-23T03:33:22.722Z,758.00
2023-03-23T03:37:22.836Z,758.00
2023-03-23T03:41:22.984Z,760.00
2023-03-23T03:45:23.135Z,756.00
2023-03-23T03:49:23.263Z,755.00
2023-03-23T03:53:23.375Z,758.00
2023-03-23T03:57:24.341Z,758.00
2023-03-23T04:01:23.303Z,756.00
2023-03-23T04:05:23.396Z,754.00
2023-03-23T04:09:23.672Z,752.00
2023-03-23T04:13:23.704Z,746.00
2023-03-23T04:17:23.906Z,748.00
2023-03-23T04:21:24.073Z,746.00
2023-03-23T04:25:24.244Z,746.00
2023-03-23T04:29:24.400Z,754.00
2023-03-23T04:33:24.596Z,754.00
2023-03-23T04:37:25.541Z,744.00
2023-03-23T04:41:24.503Z,748.00
2023-03-23T04:45:24.666Z,741.00
2023-03-23T04:49:24.899Z,738.00
2023-03-23T04:53:25.135Z,739.00
2023-03-23T04:57:25.345Z,739.00
2023-03-23T05:01:25.520Z,737.00
2023-03-23T05:05:25.733Z,735.00
2023-03-23T05:09:25.849Z,739.00
2023-03-23T05:13:26.029Z,735.00
2023-03-23T05:17:26.232Z,733.00
2023-03-23T05:21:26.389Z,730.00
2023-03-23T05:25:26.545Z,728.00
2023-03-23T05:29:26.733Z,720.00
2023-03-23T05:33:26.871Z,720.00
2023-03-23T05:37:26.918Z,724.00
2023-03-23T05:41:27.020Z,723.00
2023-03-23T05:45:27.065Z,723.00
2023-03-23T05:49:27.208Z,724.00
2023-03-23T05:53:27.352Z,723.00
2023-03-23T05:57:27.561Z,720.00
2023-03-23T06:01:27.694Z,724.00
2023-03-23T06:05:27.801Z,727.00
2023-03-23T06:09:27.914Z,724.00
2023-03-23T06:13:27.909Z,752.00
2023-03-23T06:17:27.927Z,751.00
2023-03-23T06:21:27.955Z,805.00
2023-03-23T06:25:28.064Z,903.00
2023-03-23T06:29:28.240Z,933.00
2023-03-23T06:33:28.311Z,882.00
2023-03-23T06:37:28.320Z,845.00
2023-03-23T06:41:28.364Z,845.00
2023-03-23T06:45:28.424Z,830.00
2023-03-23T06:49:28.566Z,824.00
2023-03-23T06:53:28.641Z,835.00
2023-03-23T06:57:28.651Z,842.00
2023-03-23T07:01:28.748Z,837.00
2023-03-23T07:05:28.911Z,829.00
2023-03-23T07:09:42.589Z,1011.00
2023-03-23T07:13:28.880Z,856.00
2023-03-23T07:17:29.494Z,837.00
2023-03-23T07:21:28.772Z,847.00
2023-03-23T07:25:28.738Z,902.00
2023-03-23T07:29:29.486Z,876.00
2023-03-23T07:33:28.619Z,886.00
2023-03-23T07:37:28.566Z,875.00
2023-03-23T07:41:28.509Z,877.00
2023-03-23T07:45:28.461Z,887.00
2023-03-23T07:49:28.651Z,883.00
2023-03-23T07:53:29.338Z,880.00
2023-03-23T07:57:28.312Z,911.00
2023-03-23T08:01:28.286Z,859.00
2023-03-23T08:05:28.346Z,810.00
2023-03-23T08:09:28.247Z,790.00
2023-03-23T08:13:28.257Z,790.00
2023-03-23T08:17:28.244Z,890.00
2023-03-23T08:21:28.434Z,1085.00
2023-03-23T08:25:28.486Z,941.00
2023-03-23T08:29:28.558Z,943.00
2023-03-23T08:33:28.558Z,959.00
2023-03-23T08:37:28.567Z,965.00
2023-03-23T08:41:28.731Z,956.00
2023-03-23T08:45:28.561Z,953.00
2023-03-23T08:49:28.578Z,949.00
2023-03-23T08:53:29.446Z,941.00
2023-03-23T08:57:28.575Z,939.00
2023-03-23T09:01:28.588Z,934.00
2023-03-23T09:05:28.590Z,931.00
2023-03-23T09:09:28.601Z,978.00
2023-03-23T09:13:28.750Z,1033.00
2023-03-23T09:17:28.900Z,1132.00
2023-03-23T09:21:29.022Z,1058.00
2023-03-23T09:25:29.128Z,1085.00
2023-03-23T09:29:29.201Z,1073.00
2023-03-23T09:33:29.192Z,1061.00
2023-03-23T09:37:29.192Z,1040.00
2023-03-23T09:41:29.179Z,1028.00
2023-03-23T09:45:29.172Z,1032.00
2023-03-23T09:49:29.169Z,1028.00
2023-03-23T09:53:30.084Z,1016.00
2023-03-23T09:57:29.035Z,1003.00
2023-03-23T10:01:28.984Z,991.00
2023-03-23T10:05:28.932Z,972.00
2023-03-23T10:09:28.881Z,966.00
2023-03-23T10:13:28.802Z,1070.00
2023-03-23T10:17:28.868Z,1064.00
2023-03-23T10:21:28.712Z,1020.00
2023-03-23T10:25:28.643Z,1011.00
2023-03-23T10:29:28.589Z,977.00
2023-03-23T10:33:28.553Z,962.00
2023-03-23T10:37:28.686Z,962.00
2023-03-23T10:41:28.500Z,956.00
2023-03-23T10:45:28.482Z,955.00
2023-03-23T10:49:28.454Z,965.00
2023-03-23T10:53:28.454Z,961.00
2023-03-23T10:57:28.436Z,962.00
2023-03-23T11:01:28.418Z,970.00
2023-03-23T11:05:28.398Z,958.00
2023-03-23T11:09:28.501Z,1029.00
2023-03-23T11:13:28.580Z,1152.00
2023-03-23T11:17:28.614Z,1157.00
2023-03-23T11:21:28.627Z,1051.00
2023-03-23T11:25:28.654Z,1038.00
2023-03-23T11:29:28.626Z,1038.00
2023-03-23T11:33:28.618Z,1035.00
2023-03-23T11:37:28.586Z,1065.00
2023-03-23T11:41:28.562Z,1058.00
2023-03-23T11:45:28.554Z,1029.00
2023-03-23T11:49:30.163Z,1027.00
2023-03-23T11:53:28.639Z,1145.00
2023-03-23T11:57:28.738Z,1154.00
2023-03-23T12:01:28.793Z,1202.00
2023-03-23T12:05:28.820Z,1226.00
2023-03-23T12:09:28.810Z,1227.00
2023-03-23T12:13:28.819Z,1251.00
2023-03-23T12:17:28.797Z,1202.00
2023-03-23T12:21:28.795Z,1174.00
2023-03-23T12:25:28.810Z,1177.00
2023-03-23T12:29:28.772Z,1171.00
2023-03-23T12:33:28.748Z,1153.00
2023-03-23T12:37:28.874Z,1160.00
2023-03-23T12:41:28.686Z,1163.00
2023-03-23T12:45:28.718Z,1175.00
2023-03-23T12:49:28.638Z,1174.00
2023-03-23T12:53:28.617Z,1179.00
2023-03-23T12:57:28.606Z,1182.00
2023-03-23T13:01:28.570Z,1209.00
2023-03-23T13:05:28.583Z,1226.00
2023-03-23T13:09:28.613Z,1243.00
2023-03-23T13:13:28.807Z,1232.00
2023-03-23T13:17:28.653Z,1259.00
2023-03-23T13:21:28.608Z,1266.00
2023-03-23T13:25:28.612Z,1259.00
2023-03-23T13:29:28.621Z,1261.00
2023-03-23T13:33:28.644Z,1245.00
2023-03-23T13:37:28.652Z,1233.00
2023-03-23T13:41:28.648Z,1235.00
2023-03-23T13:45:28.593Z,1243.00
2023-03-23T13:49:28.574Z,1242.00
2023-03-23T13:53:30.607Z,1290.00
2023-03-23T13:57:28.520Z,1307.00
2023-03-23T14:01:28.481Z,1306.00
2023-03-23T14:05:28.472Z,1322.00
2023-03-23T14:09:28.484Z,1338.00
2023-03-23T14:13:28.484Z,1373.00
2023-03-23T14:17:28.548Z,1375.00
2023-03-23T14:21:28.464Z,1363.00
2023-03-23T14:25:28.440Z,1344.00
2023-03-23T14:29:28.417Z,1328.00
2023-03-23T14:33:28.548Z,1307.00
2023-03-23T14:37:28.367Z,1313.00
2023-03-23T14:41:28.313Z,1335.00
2023-03-23T14:45:28.276Z,1335.00
2023-03-23T14:49:28.284Z,1341.00
2023-03-23T14:53:28.343Z,1380.00
2023-03-23T14:57:28.302Z,1412.00
2023-03-23T15:01:28.289Z,1407.00
2023-03-23T15:05:28.335Z,1391.00
2023-03-23T15:09:28.328Z,1369.00
2023-03-23T15:13:28.334Z,1345.00
2023-03-23T15:17:28.284Z,1317.00
2023-03-23T15:21:28.262Z,1303.00
2023-03-23T15:25:28.233Z,1312.00
2023-03-23T15:29:28.249Z,1320.00
2023-03-23T15:33:28.854Z,1337.00
2023-03-23T15:37:28.163Z,1137.00
2023-03-23T15:41:28.132Z,932.00
2023-03-23T15:45:28.084Z,932.00
2023-03-23T15:49:28.037Z,1152.00
2023-03-23T15:53:28.004Z,1207.00
2023-03-23T15:57:28.073Z,1275.00
2023-03-23T16:01:28.121Z,1253.00
2023-03-23T16:05:28.136Z,1233.00
2023-03-23T16:09:28.125Z,1216.00
2023-03-23T16:13:28.156Z,1219.00
2023-03-23T16:17:28.248Z,1219.00
2023-03-23T16:21:28.270Z,1216.00
2023-03-23T16:25:28.294Z,1213.00
2023-03-23T16:29:46.726Z,1206.00
2023-03-23T16:33:29.409Z,1207.00
2023-03-23T16:37:28.150Z,1208.00
2023-03-23T16:41:28.086Z,1209.00
2023-03-23T16:45:28.098Z,1204.00
2023-03-23T16:49:28.114Z,1203.00
2023-03-23T16:53:28.167Z,1208.00
2023-03-23T16:57:28.206Z,1203.00
2023-03-23T17:01:28.176Z,1205.00
2023-03-23T17:05:28.135Z,1198.00
2023-03-23T17:09:28.197Z,1200.00
2023-03-23T17:13:28.209Z,1199.00
2023-03-23T17:17:28.294Z,1201.00
2023-03-23T17:21:28.207Z,1198.00
2023-03-23T17:25:28.204Z,1192.00
2023-03-23T17:29:28.240Z,1192.00
2023-03-23T17:33:28.199Z,1195.00
2023-03-23T17:37:28.170Z,1198.00
2023-03-23T17:41:28.145Z,1193.00
2023-03-23T17:45:28.154Z,1188.00
2023-03-23T17:49:28.127Z,1176.00
2023-03-23T17:53:28.136Z,1180.00
2023-03-23T17:57:28.111Z,1176.00
2023-03-23T18:01:28.140Z,1172.00
2023-03-23T18:05:28.113Z,1171.00
2023-03-23T18:09:28.129Z,1169.00
2023-03-23T18:13:28.112Z,1162.00
2023-03-23T18:17:28.084Z,1160.00
2023-03-23T18:21:28.055Z,1151.00
2023-03-23T18:25:28.007Z,1151.00
2023-03-23T18:29:28.004Z,1147.00
2023-03-23T18:33:28.192Z,1139.00
2023-03-23T18:37:28.058Z,1132.00
2023-03-23T18:41:28.078Z,1139.00
2023-03-23T18:45:28.084Z,1144.00
2023-03-23T18:49:28.199Z,1136.00
2023-03-23T18:53:28.046Z,1138.00
2023-03-23T18:57:28.076Z,1139.00
2023-03-23T19:01:28.199Z,1133.00
2023-03-23T19:05:28.114Z,1128.00
2023-03-23T19:09:28.126Z,1127.00
2023-03-23T19:13:28.117Z,1130.00
2023-03-23T19:17:28.156Z,1126.00
2023-03-23T19:21:29.886Z,1122.00
2023-03-23T19:25:28.129Z,1117.00
2023-03-23T19:29:28.076Z,1112.00
2023-03-23T19:33:28.015Z,1107.00
2023-03-23T19:37:28.023Z,1107.00
2023-03-23T19:41:29.010Z,1112.00
2023-03-23T19:45:27.855Z,1102.00
2023-03-23T19:49:27.907Z,1099.00
2023-03-23T19:53:27.736Z,1100.00
2023-03-23T19:57:27.667Z,1091.00
2023-03-23T20:01:27.613Z,1085.00
2023-03-23T20:05:27.591Z,1082.00
2023-03-23T20:09:27.554Z,1081.00
2023-03-23T20:13:27.465Z,1076.00
2023-03-23T20:17:27.399Z,1070.00
2023-03-23T20:21:27.351Z,1077.00
2023-03-23T20:25:27.430Z,1067.00
2023-03-23T20:29:31.367Z,1061.00
2023-03-23T20:33:27.253Z,1063.00
2023-03-23T20:37:27.153Z,1055.00
2023-03-23T20:41:27.110Z,1056.00
2023-03-23T20:45:27.050Z,1057.00
2023-03-23T20:49:26.998Z,1060.00
2023-03-23T20:53:26.946Z,1056.00
2023-03-23T20:57:26.875Z,1050.00
2023-03-23T22:49:26.216Z,978.00
2023-03-23T22:53:26.198Z,977.00
2023-03-23T22:57:26.218Z,973.00
2023-03-23T23:01:26.247Z,974.00
2023-03-23T23:05:26.246Z,970.00
2023-03-23T23:09:26.309Z,967.00
2023-03-23T23:13:26.370Z,954.00
2023-03-23T23:17:26.515Z,955.00
2023-03-23T23:21:26.669Z,955.00
2023-03-23T23:25:26.689Z,957.00
2023-03-23T23:29:26.748Z,950.00
2023-03-23T23:33:26.849Z,953.00
2023-03-23T23:37:26.896Z,956.00
2023-03-23T23:41:26.904Z,954.00
2023-03-23T23:45:26.980Z,951.00
2023-03-23T23:49:27.093Z,945.00
2023-03-23T23:53:27.132Z,944.00
2023-03-23T23:57:27.180Z,939.00
